createdAt,value
2018-07-07T00:02:06.382Z,68.33
2018-07-07T00:04:36.045Z,66.51
2018-07-07T00:07:05.731Z,67.20
2018-07-07T00:09:35.450Z,68.15
2018-07-07T00:12:05.194Z,67.99
2018-07-07T00:14:34.865Z,68.95
2018-07-07T00:17:04.600Z,69.64
2018-07-07T00:19:34.263Z,69.97
2018-07-07T00:22:04.520Z,70.43
2018-07-07T00:24:34.504Z,70.42
2018-07-07T00:27:04.272Z,70.35
2018-07-07T00:29:33.949Z,71.39
2018-07-07T00:32:03.648Z,70.64
2018-07-07T00:34:33.384Z,69.44
2018-07-07T00:37:03.079Z,68.58
2018-07-07T00:39:32.788Z,69.00
2018-07-07T00:42:02.525Z,70.54
2018-07-07T00:44:32.316Z,71.17
2018-07-07T00:47:02.010Z,71.16
2018-07-07T00:49:31.776Z,71.48
2018-07-07T00:52:01.464Z,71.02
2018-07-07T00:54:31.335Z,70.19
2018-07-07T00:57:00.916Z,70.79
2018-07-07T00:59:30.614Z,71.76
2018-07-07T01:02:00.479Z,70.13
2018-07-07T01:04:30.156Z,69.89
2018-07-07T01:06:59.832Z,68.88
2018-07-07T01:09:29.646Z,69.23
2018-07-07T01:11:59.659Z,69.80
2018-07-07T01:14:29.376Z,69.90
2018-07-07T01:16:59.083Z,70.05
2018-07-07T01:19:28.841Z,70.45
2018-07-07T01:21:58.598Z,72.12
2018-07-07T01:24:28.261Z,72.82
2018-07-07T01:26:57.944Z,72.84
2018-07-07T01:29:27.666Z,72.91
2018-07-07T01:31:57.396Z,72.70
2018-07-07T01:34:27.110Z,73.24
2018-07-07T01:36:56.879Z,71.31
2018-07-07T01:39:26.560Z,71.02
2018-07-07T01:41:56.276Z,70.09
2018-07-07T01:44:25.972Z,70.06
2018-07-07T01:46:55.644Z,69.19
2018-07-07T01:49:25.366Z,69.52
2018-07-07T01:51:55.048Z,69.36
2018-07-07T01:54:24.736Z,69.58
2018-07-07T01:56:54.476Z,69.30
2018-07-07T01:59:24.152Z,69.49
2018-07-07T02:01:53.824Z,69.28
2018-07-07T02:04:23.548Z,69.12
2018-07-07T02:06:53.259Z,69.56
2018-07-07T02:09:22.955Z,69.07
2018-07-07T02:11:52.764Z,68.81
2018-07-07T02:14:22.461Z,69.77
2018-07-07T02:16:52.196Z,69.64
2018-07-07T02:19:21.865Z,69.26
2018-07-07T02:21:51.572Z,70.12
2018-07-07T02:24:21.311Z,70.66
2018-07-07T02:26:51.007Z,71.40
2018-07-07T02:29:20.747Z,70.80
2018-07-07T02:31:50.449Z,69.81
2018-07-07T02:34:20.185Z,70.81
2018-07-07T02:36:49.853Z,71.73
2018-07-07T02:39:19.554Z,72.92
2018-07-07T02:41:49.269Z,72.67
2018-07-07T02:44:18.963Z,72.80
2018-07-07T02:46:48.683Z,73.44
2018-07-07T02:49:18.415Z,73.16
2018-07-07T02:51:48.078Z,72.62
2018-07-07T02:54:17.785Z,72.22
2018-07-07T02:56:47.489Z,71.88
2018-07-07T02:59:17.166Z,72.36
2018-07-07T03:01:46.856Z,71.41
2018-07-07T03:04:16.562Z,72.20
2018-07-07T03:06:46.244Z,71.70
2018-07-07T03:09:16.405Z,70.84
2018-07-07T03:11:46.116Z,72.50
2018-07-07T03:14:15.817Z,71.91
2018-07-07T03:16:45.566Z,72.45
2018-07-07T03:19:15.365Z,74.28
2018-07-07T03:21:45.068Z,76.00
2018-07-07T03:24:14.715Z,74.84
2018-07-07T03:26:44.377Z,75.73
2018-07-07T03:29:14.100Z,76.48
2018-07-07T03:31:43.765Z,76.19
2018-07-07T03:34:13.412Z,74.91
2018-07-07T03:36:43.160Z,75.60
2018-07-07T03:39:13.172Z,75.67
2018-07-07T03:41:42.860Z,75.98
2018-07-07T03:44:12.581Z,74.66
2018-07-07T03:46:42.265Z,76.19
2018-07-07T03:49:11.958Z,77.42
2018-07-07T03:51:41.721Z,77.58
2018-07-07T03:54:11.436Z,77.52
2018-07-07T03:56:41.147Z,77.04
2018-07-07T03:59:10.798Z,75.98
2018-07-07T04:01:40.476Z,75.51
2018-07-07T04:04:10.191Z,75.69
2018-07-07T04:06:39.887Z,76.82
2018-07-07T04:09:09.584Z,76.45
2018-07-07T04:11:39.329Z,76.94
2018-07-07T04:14:09.047Z,76.50
2018-07-07T04:16:38.766Z,75.61
2018-07-07T04:19:08.503Z,75.65
2018-07-07T04:21:38.216Z,75.93
2018-07-07T04:24:07.890Z,75.99
2018-07-07T04:26:37.647Z,76.82
2018-07-07T04:29:07.339Z,75.53
2018-07-07T04:31:37.053Z,74.93
2018-07-07T04:34:07.243Z,75.04
2018-07-07T04:36:36.950Z,74.84
2018-07-07T04:39:07.102Z,73.81
2018-07-07T04:41:36.808Z,73.38
2018-07-07T04:44:06.500Z,73.71
2018-07-07T04:46:36.215Z,72.70
2018-07-07T04:49:06.169Z,72.46
2018-07-07T04:51:35.867Z,72.26
2018-07-07T04:54:05.615Z,72.64
2018-07-07T04:56:35.309Z,72.35
2018-07-07T04:59:05.065Z,72.17
2018-07-07T05:01:34.767Z,73.04
2018-07-07T05:04:04.441Z,73.01
2018-07-07T05:06:34.200Z,72.84
2018-07-07T05:09:04.014Z,73.03
2018-07-07T05:11:33.800Z,72.63
2018-07-07T05:14:03.559Z,72.20
2018-07-07T05:16:33.258Z,71.73
2018-07-07T05:19:02.948Z,71.64
2018-07-07T05:21:32.839Z,71.42
2018-07-07T05:24:02.584Z,71.28
2018-07-07T05:26:32.343Z,70.22
2018-07-07T05:29:08.502Z,70.36
2018-07-07T05:31:38.226Z,70.86
2018-07-07T05:34:07.943Z,70.14
2018-07-07T05:36:37.883Z,68.78
2018-07-07T05:39:08.233Z,68.86
2018-07-07T05:41:38.119Z,69.09
2018-07-07T05:44:07.862Z,68.67
2018-07-07T05:46:37.609Z,68.69
2018-07-07T05:49:07.356Z,68.37
2018-07-07T05:51:37.384Z,68.64
2018-07-07T05:54:07.189Z,68.21
2018-07-07T05:56:36.867Z,67.39
2018-07-07T05:59:06.627Z,68.10
2018-07-07T06:01:36.340Z,68.23
2018-07-07T06:04:06.115Z,67.71
2018-07-07T06:06:35.837Z,67.71
2018-07-07T06:09:06.093Z,67.05
2018-07-07T06:11:36.204Z,67.03
2018-07-07T06:14:05.977Z,66.88
2018-07-07T06:16:35.852Z,65.82
2018-07-07T06:19:05.749Z,66.12
2018-07-07T06:21:35.509Z,66.53
2018-07-07T06:24:05.527Z,65.16
2018-07-07T06:26:35.322Z,65.09
2018-07-07T06:29:05.031Z,66.00
2018-07-07T06:31:34.672Z,65.03
2018-07-07T06:34:04.644Z,64.28
2018-07-07T06:36:34.341Z,63.57
2018-07-07T06:39:04.932Z,64.29
2018-07-07T06:41:34.591Z,63.79
2018-07-07T06:44:04.673Z,64.49
2018-07-07T06:46:34.399Z,63.08
2018-07-07T06:49:04.362Z,63.45
2018-07-07T06:51:34.114Z,63.64
2018-07-07T06:54:03.877Z,62.36
2018-07-07T06:56:33.627Z,61.84
2018-07-07T06:59:03.336Z,61.51
2018-07-07T07:01:33.096Z,62.97
2018-07-07T07:04:02.800Z,63.22
2018-07-07T07:06:32.520Z,62.07
2018-07-07T07:09:02.376Z,61.81
2018-07-07T07:11:32.108Z,60.44
2018-07-07T07:14:01.875Z,60.24
2018-07-07T07:16:31.635Z,59.74
2018-07-07T07:19:01.331Z,59.56
2018-07-07T07:21:31.112Z,59.81
2018-07-07T07:24:01.191Z,61.26
2018-07-07T07:26:30.924Z,61.10
2018-07-07T07:29:00.680Z,60.77
2018-07-07T07:31:30.465Z,61.43
2018-07-07T07:34:00.320Z,61.79
2018-07-07T07:36:37.464Z,61.49
2018-07-07T07:39:07.372Z,60.97
2018-07-07T07:41:37.151Z,61.17
2018-07-07T07:44:06.899Z,60.76
2018-07-07T07:46:36.705Z,60.44
2018-07-07T07:49:06.507Z,60.21
2018-07-07T07:51:36.492Z,59.38
2018-07-07T07:54:06.277Z,58.29
2018-07-07T07:56:35.995Z,57.32
2018-07-07T07:59:05.893Z,57.50
2018-07-07T08:01:35.533Z,56.58
2018-07-07T08:04:05.325Z,55.62
2018-07-07T08:06:35.012Z,56.30
2018-07-07T08:09:05.153Z,56.15
2018-07-07T08:11:34.855Z,55.62
2018-07-07T08:14:04.631Z,55.54
2018-07-07T08:16:34.769Z,54.82
2018-07-07T08:19:04.791Z,55.31
2018-07-07T08:21:34.568Z,54.20
2018-07-07T08:24:04.360Z,53.26
2018-07-07T08:26:34.130Z,53.85
2018-07-07T08:29:03.847Z,52.81
2018-07-07T08:31:33.565Z,52.71
2018-07-07T08:34:03.405Z,52.61
2018-07-07T08:36:33.176Z,51.42
2018-07-07T08:39:03.004Z,50.70
2018-07-07T08:41:32.743Z,50.65
2018-07-07T08:44:02.468Z,50.99
2018-07-07T08:46:32.264Z,51.49
2018-07-07T08:49:01.976Z,50.60
2018-07-07T08:51:32.617Z,50.93
2018-07-07T08:54:02.328Z,50.62
2018-07-07T08:56:32.024Z,51.35
2018-07-07T08:59:01.779Z,51.02
2018-07-07T09:01:31.480Z,49.84
2018-07-07T09:04:01.210Z,51.09
2018-07-07T09:06:30.897Z,50.74
2018-07-07T09:09:00.613Z,50.45
2018-07-07T09:11:30.327Z,49.43
2018-07-07T09:14:00.066Z,49.59
2018-07-07T09:16:29.815Z,48.14
2018-07-07T09:18:59.871Z,49.32
2018-07-07T09:21:29.597Z,49.64
2018-07-07T09:23:59.345Z,49.08
2018-07-07T09:26:29.032Z,48.68
2018-07-07T09:28:58.753Z,48.37
2018-07-07T09:31:28.433Z,48.48
2018-07-07T09:33:58.201Z,46.93
2018-07-07T09:36:28.167Z,46.77
2018-07-07T09:38:57.868Z,45.76
2018-07-07T09:41:27.580Z,46.90
2018-07-07T09:43:57.262Z,45.46
2018-07-07T09:46:26.940Z,46.58
2018-07-07T09:48:56.673Z,46.29
2018-07-07T09:51:26.344Z,45.73
2018-07-07T09:54:02.240Z,44.36
2018-07-07T09:56:31.913Z,44.94
2018-07-07T09:59:01.590Z,43.79
2018-07-07T10:01:31.315Z,43.70
2018-07-07T10:04:01.067Z,43.42
2018-07-07T10:06:30.798Z,43.90
2018-07-07T10:09:00.461Z,44.68
2018-07-07T10:11:30.170Z,43.36
2018-07-07T10:13:59.932Z,41.46
2018-07-07T10:16:30.024Z,42.71
2018-07-07T10:18:59.707Z,43.30
2018-07-07T10:21:29.443Z,42.87
2018-07-07T10:23:59.116Z,43.59
2018-07-07T10:26:28.819Z,43.17
2018-07-07T10:28:58.609Z,42.35
2018-07-07T10:31:28.324Z,42.46
2018-07-07T10:33:58.000Z,42.37
2018-07-07T10:36:27.731Z,42.64
2018-07-07T10:38:57.415Z,41.87
2018-07-07T10:41:27.125Z,41.43
2018-07-07T10:43:56.816Z,41.59
2018-07-07T10:46:26.508Z,42.55
2018-07-07T10:48:56.317Z,42.83
2018-07-07T10:51:26.016Z,39.60
2018-07-07T10:53:55.917Z,40.43
2018-07-07T10:56:25.661Z,41.66
2018-07-07T10:58:55.562Z,40.06
2018-07-07T11:01:25.330Z,39.73
2018-07-07T11:03:55.344Z,39.84
2018-07-07T11:06:25.147Z,40.29
2018-07-07T11:08:54.809Z,39.97
2018-07-07T11:11:24.590Z,39.82
2018-07-07T11:13:54.373Z,40.22
2018-07-07T11:16:24.047Z,39.37
2018-07-07T11:18:53.704Z,39.70
2018-07-07T11:21:23.444Z,38.64
2018-07-07T11:23:53.128Z,39.08
2018-07-07T11:26:22.789Z,38.41
2018-07-07T11:28:52.548Z,38.70
2018-07-07T11:31:22.239Z,38.14
2018-07-07T11:33:51.899Z,36.67
2018-07-07T11:36:21.687Z,38.42
2018-07-07T11:38:51.401Z,37.61
2018-07-07T11:41:22.961Z,38.95
2018-07-07T11:43:54.184Z,38.27
2018-07-07T11:46:23.992Z,38.16
2018-07-07T11:48:53.660Z,38.57
2018-07-07T11:51:23.371Z,38.72
2018-07-07T11:53:53.341Z,36.97
2018-07-07T11:56:23.008Z,36.64
2018-07-07T11:58:52.965Z,36.65
2018-07-07T12:01:22.663Z,36.49
2018-07-07T12:03:52.531Z,34.81
2018-07-07T12:06:22.207Z,37.06
2018-07-07T12:08:51.924Z,36.72
2018-07-07T12:11:21.722Z,36.95
2018-07-07T12:13:51.407Z,35.20
2018-07-07T12:16:21.265Z,35.71
2018-07-07T12:18:50.965Z,35.58
2018-07-07T12:21:20.660Z,35.96
2018-07-07T12:23:50.405Z,35.25
2018-07-07T12:26:20.076Z,35.90
2018-07-07T12:28:49.732Z,34.43
2018-07-07T12:31:19.464Z,33.79
2018-07-07T12:33:49.237Z,34.46
2018-07-07T12:36:18.936Z,35.37
2018-07-07T12:38:48.637Z,34.95
2018-07-07T12:41:18.354Z,35.12
2018-07-07T12:43:48.061Z,35.39
2018-07-07T12:46:17.788Z,35.57
2018-07-07T12:48:47.484Z,35.16
2018-07-07T12:51:17.204Z,35.00
2018-07-07T12:53:46.877Z,33.10
2018-07-07T12:56:16.581Z,35.31
2018-07-07T12:58:46.308Z,34.88
2018-07-07T13:01:16.069Z,33.56
2018-07-07T13:03:45.703Z,32.89
2018-07-07T13:06:15.399Z,32.68
2018-07-07T13:08:45.244Z,32.94
2018-07-07T13:11:14.959Z,32.24
2018-07-07T13:13:44.732Z,32.90
2018-07-07T13:16:14.553Z,33.43
2018-07-07T13:18:44.253Z,32.24
2018-07-07T13:21:13.927Z,30.98
2018-07-07T13:23:43.699Z,32.98
2018-07-07T13:26:13.444Z,32.78
2018-07-07T13:28:43.079Z,33.80
2018-07-07T13:31:12.777Z,33.04
2018-07-07T13:33:42.544Z,34.56
2018-07-07T13:36:12.192Z,33.78
2018-07-07T13:38:41.915Z,32.24
2018-07-07T13:41:11.611Z,32.52
2018-07-07T13:43:41.275Z,31.24
2018-07-07T13:46:10.981Z,30.90
2018-07-07T13:48:40.698Z,32.49
2018-07-07T13:51:10.425Z,32.74
2018-07-07T13:53:40.152Z,31.40
2018-07-07T13:56:09.845Z,31.34
2018-07-07T13:58:39.524Z,32.49
2018-07-07T14:01:09.268Z,31.57
2018-07-07T14:03:39.048Z,33.00
2018-07-07T14:06:08.723Z,31.18
2018-07-07T14:08:38.446Z,32.60
2018-07-07T14:11:08.132Z,31.59
2018-07-07T14:13:37.851Z,32.09
2018-07-07T14:16:07.708Z,32.24
2018-07-07T14:18:37.363Z,31.61
2018-07-07T14:21:07.167Z,31.95
2018-07-07T14:23:36.976Z,31.85
2018-07-07T14:26:06.675Z,32.66
2018-07-07T14:28:36.356Z,31.58
2018-07-07T14:31:06.468Z,31.50
2018-07-07T14:33:36.267Z,31.00
2018-07-07T14:36:05.978Z,30.34
2018-07-07T14:38:36.940Z,31.87
2018-07-07T14:41:15.140Z,33.07
2018-07-07T14:43:57.107Z,33.30
2018-07-07T14:46:27.360Z,33.12
2018-07-07T14:48:57.124Z,33.83
2018-07-07T14:51:26.870Z,33.68
2018-07-07T14:53:56.588Z,33.96
2018-07-07T14:56:26.949Z,34.46
2018-07-07T14:58:56.656Z,34.20
2018-07-07T15:01:26.423Z,34.21
2018-07-07T15:03:56.138Z,34.80
2018-07-07T15:06:26.120Z,35.66
2018-07-07T15:08:55.912Z,34.72
2018-07-07T15:11:25.630Z,35.41
2018-07-07T15:13:55.403Z,35.19
2018-07-07T15:16:25.099Z,36.75
2018-07-07T15:18:54.792Z,34.67
2018-07-07T15:21:24.569Z,35.93
2018-07-07T15:23:54.279Z,35.74
2018-07-07T15:26:23.930Z,35.78
2018-07-07T15:28:53.687Z,35.71
2018-07-07T15:31:23.403Z,35.78
2018-07-07T15:33:53.231Z,35.67
2018-07-07T15:36:22.933Z,35.63
2018-07-07T15:38:52.598Z,35.99
2018-07-07T15:41:22.328Z,36.36
2018-07-07T15:43:51.988Z,36.99
2018-07-07T15:46:21.720Z,36.56
2018-07-07T15:48:51.432Z,36.31
2018-07-07T15:51:21.152Z,37.32
2018-07-07T15:53:50.810Z,36.85
2018-07-07T15:56:20.513Z,37.02
2018-07-07T15:58:50.179Z,37.29
2018-07-07T16:01:19.855Z,37.52
2018-07-07T16:03:49.587Z,37.43
2018-07-07T16:06:19.260Z,37.83
2018-07-07T16:08:48.920Z,36.38
2018-07-07T16:11:18.749Z,36.54
2018-07-07T16:13:48.465Z,37.75
2018-07-07T16:16:18.189Z,37.68
2018-07-07T16:18:47.875Z,36.97
2018-07-07T16:21:17.579Z,36.05
2018-07-07T16:23:47.304Z,35.98
2018-07-07T16:26:17.168Z,38.88
2018-07-07T16:28:47.206Z,37.05
2018-07-07T16:31:16.924Z,36.96
2018-07-07T16:33:46.631Z,37.57
2018-07-07T16:36:16.372Z,37.06
2018-07-07T16:38:46.336Z,37.45
2018-07-07T16:41:16.246Z,37.79
2018-07-07T16:43:46.005Z,37.28
2018-07-07T16:46:15.732Z,36.38
2018-07-07T16:48:45.768Z,37.76
2018-07-07T16:51:15.519Z,37.27
2018-07-07T16:53:46.240Z,38.92
2018-07-07T16:56:18.284Z,37.78
2018-07-07T16:58:48.101Z,38.90
2018-07-07T17:01:18.161Z,38.50
2018-07-07T17:03:47.972Z,39.19
2018-07-07T17:06:17.819Z,39.40
2018-07-07T17:08:47.633Z,39.62
2018-07-07T17:11:17.393Z,39.71
2018-07-07T17:13:47.241Z,40.09
2018-07-07T17:16:16.913Z,39.54
2018-07-07T17:18:46.727Z,38.79
2018-07-07T17:21:17.028Z,38.73
2018-07-07T17:23:46.932Z,40.01
2018-07-07T17:26:16.667Z,39.94
2018-07-07T17:28:46.696Z,40.34
2018-07-07T17:31:16.516Z,39.99
2018-07-07T17:33:47.363Z,39.44
2018-07-07T17:36:17.801Z,38.53
2018-07-07T17:38:47.574Z,39.49
2018-07-07T17:41:17.327Z,40.38
2018-07-07T17:43:47.174Z,40.39
2018-07-07T17:46:16.988Z,40.42
2018-07-07T17:48:46.751Z,39.66
2018-07-07T17:51:16.880Z,39.46
2018-07-07T17:53:46.699Z,40.24
2018-07-07T17:56:17.879Z,40.44
2018-07-07T17:58:47.643Z,41.03
2018-07-07T18:01:17.393Z,40.47
2018-07-07T18:03:47.200Z,40.94
2018-07-07T18:06:16.879Z,41.84
2018-07-07T18:08:46.703Z,41.42
2018-07-07T18:11:16.357Z,41.81
2018-07-07T18:13:46.065Z,41.90
2018-07-07T18:16:15.885Z,42.23
2018-07-07T18:18:45.565Z,42.97
2018-07-07T18:21:15.276Z,43.31
2018-07-07T18:23:45.056Z,43.60
2018-07-07T18:26:14.765Z,44.69
2018-07-07T18:28:44.517Z,44.57
2018-07-07T18:31:14.196Z,44.55
2018-07-07T18:33:43.836Z,45.11
2018-07-07T18:36:13.540Z,44.77
2018-07-07T18:38:43.229Z,45.56
2018-07-07T18:41:12.910Z,45.41
2018-07-07T18:43:42.707Z,45.53
2018-07-07T18:46:12.377Z,44.90
2018-07-07T18:48:42.119Z,45.73
2018-07-07T18:51:11.782Z,45.85
2018-07-07T18:53:41.444Z,46.23
2018-07-07T18:56:11.193Z,45.76
2018-07-07T18:58:40.895Z,45.55
2018-07-07T19:01:10.640Z,45.57
2018-07-07T19:03:40.319Z,45.73
2018-07-07T19:06:10.063Z,46.44
2018-07-07T19:08:39.723Z,47.63
2018-07-07T19:11:09.433Z,46.96
2018-07-07T19:13:39.165Z,47.49
2018-07-07T19:16:08.864Z,47.51
2018-07-07T19:18:38.577Z,47.82
2018-07-07T19:21:13.415Z,46.79
2018-07-07T19:23:48.075Z,46.82
2018-07-07T19:26:22.849Z,47.47
2018-07-07T19:28:52.572Z,47.72
2018-07-07T19:31:22.296Z,47.24
2018-07-07T19:33:57.055Z,47.47
2018-07-07T19:36:31.837Z,47.82
2018-07-07T19:39:01.546Z,47.49
2018-07-07T19:41:31.312Z,47.83
2018-07-07T19:44:01.032Z,47.76
2018-07-07T19:46:30.758Z,48.13
2018-07-07T19:49:00.529Z,47.81
2018-07-07T19:51:30.301Z,47.95
2018-07-07T19:54:00.024Z,48.27
2018-07-07T19:56:29.752Z,48.20
2018-07-07T19:58:59.461Z,48.48
2018-07-07T20:01:29.223Z,48.43
2018-07-07T20:03:58.933Z,48.60
2018-07-07T20:06:28.686Z,48.85
2018-07-07T20:08:58.461Z,48.60
2018-07-07T20:11:28.176Z,49.23
2018-07-07T20:13:57.899Z,49.24
2018-07-07T20:17:40.231Z,49.09
2018-07-07T20:20:45.820Z,49.44
2018-07-07T20:23:16.812Z,49.72
2018-07-07T20:25:51.576Z,49.69
2018-07-07T20:28:26.463Z,50.06
2018-07-07T20:30:59.586Z,50.35
2018-07-07T20:33:29.765Z,50.50
2018-07-07T20:35:59.432Z,50.54
2018-07-07T20:38:29.249Z,50.36
2018-07-07T20:40:58.953Z,50.63
2018-07-07T20:43:28.727Z,50.73
2018-07-07T20:45:58.393Z,50.71
2018-07-07T20:48:28.084Z,50.84
2018-07-07T20:50:57.855Z,50.27
2018-07-07T20:53:27.565Z,50.93
2018-07-07T20:55:57.285Z,50.93
2018-07-07T20:58:26.994Z,51.15
2018-07-07T21:00:56.710Z,50.98
2018-07-07T21:03:26.448Z,51.27
2018-07-07T21:05:56.129Z,51.46
2018-07-07T21:08:25.820Z,51.04
2018-07-07T21:10:55.547Z,51.15
2018-07-07T21:13:25.300Z,51.17
2018-07-07T21:15:54.996Z,52.00
2018-07-07T21:18:24.797Z,51.55
2018-07-07T21:20:54.473Z,52.21
2018-07-07T21:23:24.281Z,51.75
2018-07-07T21:25:53.944Z,52.14
2018-07-07T21:28:23.638Z,52.41
2018-07-07T21:30:53.443Z,53.12
2018-07-07T21:33:23.130Z,52.41
2018-07-07T21:35:52.913Z,53.10
2018-07-07T21:38:22.657Z,52.71
2018-07-07T21:40:52.495Z,53.45
2018-07-07T21:43:22.220Z,53.29
2018-07-07T21:45:51.916Z,52.83
2018-07-07T21:48:21.694Z,53.75
2018-07-07T21:50:51.492Z,54.01
2018-07-07T21:53:21.212Z,53.35
2018-07-07T21:55:50.960Z,53.77
2018-07-07T21:58:28.323Z,53.95
2018-07-07T22:01:11.180Z,54.56
2018-07-07T22:03:46.969Z,55.20
2018-07-07T22:06:21.896Z,55.26
2018-07-07T22:08:51.609Z,54.76
2018-07-07T22:11:21.309Z,55.62
2018-07-07T22:13:51.009Z,55.80
2018-07-07T22:16:20.752Z,55.32
2018-07-07T22:18:50.439Z,55.57
2018-07-07T22:21:31.201Z,55.98
2018-07-07T22:24:00.860Z,56.56
2018-07-07T22:26:30.606Z,56.39
2018-07-07T22:29:00.333Z,55.97
2018-07-07T22:31:30.053Z,56.60
2018-07-07T22:33:59.725Z,56.75
2018-07-07T22:36:34.743Z,57.10
2018-07-07T22:39:04.627Z,57.65
2018-07-07T22:41:51.480Z,57.69
2018-07-07T22:44:21.424Z,57.79
2018-07-07T22:46:51.485Z,57.58
2018-07-07T22:49:21.190Z,58.41
2018-07-07T22:51:50.961Z,58.68
2018-07-07T22:54:20.709Z,59.04
2018-07-07T22:56:50.373Z,59.18
2018-07-07T22:59:20.111Z,58.96
2018-07-07T23:01:49.776Z,59.86
2018-07-07T23:04:19.472Z,59.58
2018-07-07T23:06:49.246Z,58.85
2018-07-07T23:09:19.386Z,58.38
2018-07-07T23:11:49.135Z,59.05
2018-07-07T23:14:18.794Z,59.47
2018-07-07T23:16:48.468Z,58.97
2018-07-07T23:19:18.251Z,59.28
2018-07-07T23:21:47.922Z,59.51
2018-07-07T23:24:17.669Z,59.05
2018-07-07T23:26:47.393Z,59.98
2018-07-07T23:29:17.061Z,59.46
2018-07-07T23:31:46.748Z,60.59
2018-07-07T23:34:16.513Z,60.44
2018-07-07T23:36:46.265Z,60.78
2018-07-07T23:39:15.953Z,60.65
2018-07-07T23:41:45.850Z,61.13
2018-07-07T23:44:15.556Z,61.12
2018-07-07T23:46:45.284Z,61.16
2018-07-07T23:49:14.940Z,61.28
2018-07-07T23:51:44.689Z,61.67
2018-07-07T23:54:14.888Z,62.48
2018-07-07T23:56:44.632Z,62.01
2018-07-07T23:59:14.321Z,62.95
